Time;durP1;ratioP1;P1;durP2;ratioP2;P2;SDS_P1;SDS_P2;PMS_P1;PMS_P2;Temp;Humidity;BMP_temperature;BMP_pressure;BME280_temperature;BME280_humidity;BME280_pressure;Samples;Min_cycle;Max_cycle;Signal;HPM_P1;HPM_P2
2022/04/06 00:00:00;;;;;;;;;;;8.70;99.90;;;;;;5114873;28;20405;-41
2022/04/06 00:02:25;;;;;;;;;;;8.70;99.90;;;;;;5114817;28;19915;-43
2022/04/06 00:04:52;;;;;;;;;;;8.70;99.90;;;;;;5114373;28;19915;-41
2022/04/06 00:07:18;;;;;;;;;;;8.60;99.90;;;;;;5114671;28;19912;-41
2022/04/06 00:09:44;;;;;;;;;;;8.60;99.90;;;;;;5114396;28;20003;-42
2022/04/06 00:12:09;;;;;;;;;;;8.60;99.90;;;;;;5114917;28;19999;-42
2022/04/06 00:14:35;;;;;;;;;;;8.60;99.90;;;;;;5114900;28;20002;-45
2022/04/06 00:17:05;;;;;;;;;;;8.50;99.90;;;;;;5114569;28;19930;-42
2022/04/06 00:19:34;;;;;;;;;;;8.60;99.90;;;;;;5114573;28;19908;-44
2022/04/06 00:22:00;;;;;;;;;;;8.60;99.90;;;;;;5112749;28;19908;-45
2022/04/06 00:24:26;;;;;;;;;;;8.60;99.90;;;;;;5114486;28;20012;-44
2022/04/06 00:26:52;;;;;;;;;;;8.50;99.90;;;;;;5114442;28;19915;-44
2022/04/06 00:29:17;;;;;;;;;;;8.50;99.90;;;;;;5114151;28;20250;-43
2022/04/06 00:31:43;;;;;;;;;;;8.60;99.90;;;;;;5114294;28;19961;-42
2022/04/06 00:34:09;;;;;;;;;;;8.60;99.90;;;;;;5114156;28;19908;-43
2022/04/06 00:36:34;;;;;;;;;;;8.60;99.90;;;;;;5114041;28;19915;-43
2022/04/06 00:39:00;;;;;;;;;;;8.70;99.90;;;;;;5114346;28;19995;-42
2022/04/06 00:41:25;;;;;;;;;;;8.70;99.90;;;;;;5114238;28;20272;-43
2022/04/06 00:44:09;;;;;;;;;;;8.70;99.90;;;;;;5114235;28;19914;-44
2022/04/06 00:46:34;;;;;;;;;;;8.70;99.90;;;;;;5118207;28;20002;-42
2022/04/06 00:49:00;;;;;;;;;;;8.70;99.90;;;;;;5117908;28;19996;-42
2022/04/06 00:51:26;;;;;;;;;;;8.70;99.90;;;;;;5118757;28;20071;-43
2022/04/06 00:53:51;;;;;;;;;;;8.70;99.90;;;;;;5118433;28;19961;-43
2022/04/06 00:56:17;;;;;;;;;;;8.70;99.90;;;;;;5117968;28;19908;-42
2022/04/06 00:58:43;;;;;;;;;;;8.70;99.90;;;;;;5117956;28;19998;-42
2022/04/06 01:01:08;;;;;;;;;;;8.70;99.90;;;;;;5118223;28;19914;-44
2022/04/06 01:03:34;;;;;;;;;;;8.70;99.90;;;;;;5118241;28;20417;-43
2022/04/06 01:06:00;;;;;;;;;;;8.70;99.90;;;;;;5118048;28;20003;-45
2022/04/06 01:08:25;;;;;;;;;;;8.70;99.90;;;;;;5117766;28;19912;-43
2022/04/06 01:10:51;;;;;;;;;;;8.70;99.90;;;;;;5118003;28;19908;-44
2022/04/06 01:13:17;;;;;;;;;;;8.70;99.90;;;;;;5117657;28;19908;-45
2022/04/06 01:15:42;;;;;;;;;;;8.80;99.90;;;;;;5117944;28;19918;-45
2022/04/06 01:18:08;;;;;;;;;;;8.80;99.90;;;;;;5117727;28;20416;-40
2022/04/06 01:20:34;;;;;;;;;;;8.70;99.90;;;;;;5117885;28;20028;-41
2022/04/06 01:22:59;;;;;;;;;;;8.70;99.90;;;;;;5117582;28;19939;-43
2022/04/06 01:25:27;;;;;;;;;;;8.70;99.90;;;;;;5117686;28;19912;-42
2022/04/06 01:27:52;;;;;;;;;;;8.70;99.90;;;;;;5117787;28;19916;-44
2022/04/06 01:30:18;;;;;;;;;;;8.70;99.90;;;;;;5117701;28;19915;-43
2022/04/06 01:32:43;;;;;;;;;;;8.80;99.90;;;;;;5117717;28;19942;-42
2022/04/06 01:35:09;;;;;;;;;;;8.80;99.90;;;;;;5117709;28;20299;-42
2022/04/06 01:37:34;;;;;;;;;;;8.80;99.90;;;;;;5116405;28;20417;-42
2022/04/06 01:40:00;;;;;;;;;;;8.80;99.90;;;;;;5117538;28;20351;-42
2022/04/06 01:42:25;;;;;;;;;;;8.80;99.90;;;;;;5116160;28;19914;-42
2022/04/06 01:44:51;;;;;;;;;;;8.80;99.90;;;;;;5117040;28;19908;-43
2022/04/06 01:47:18;;;;;;;;;;;8.80;99.90;;;;;;5117292;28;19939;-45
2022/04/06 01:52:28;;;;;;;;;;;8.80;99.90;;;;;;5116981;28;19930;-43
2022/04/06 01:54:56;;;;;;;;;;;8.80;99.90;;;;;;5117207;28;20410;-42
2022/04/06 01:57:23;;;;;;;;;;;8.80;99.90;;;;;;5116164;28;20354;-43
2022/04/06 01:59:49;;;;;;;;;;;8.80;99.90;;;;;;5117040;28;20354;-42
2022/04/06 02:02:16;;;;;;;;;;;8.80;99.90;;;;;;5116749;28;19907;-44
2022/04/06 02:04:42;;;;;;;;;;;8.80;99.90;;;;;;5117084;28;19908;-44
2022/04/06 02:07:09;;;;;;;;;;;8.80;99.90;;;;;;5116888;28;19911;-42
2022/04/06 02:09:36;;;;;;;;;;;8.80;99.90;;;;;;5116105;28;19987;-44
2022/04/06 02:12:01;;;;;;;;;;;8.80;99.90;;;;;;5116447;28;20358;-42
2022/04/06 02:14:27;;;;;;;;;;;8.80;99.90;;;;;;5116527;28;19908;-43
2022/04/06 02:16:53;;;;;;;;;;;8.80;99.90;;;;;;5116799;28;19907;-43
2022/04/06 02:19:18;;;;;;;;;;;8.80;99.90;;;;;;5116759;28;19908;-42
2022/04/06 02:21:44;;;;;;;;;;;8.80;99.90;;;;;;5116442;28;19908;-44
2022/04/06 02:24:10;;;;;;;;;;;8.80;99.90;;;;;;5116415;28;19908;-42
2022/04/06 02:26:35;;;;;;;;;;;8.80;99.90;;;;;;5115429;28;20024;-44
2022/04/06 02:29:01;;;;;;;;;;;8.80;99.90;;;;;;5116547;28;20267;-45
2022/04/06 02:31:27;;;;;;;;;;;8.70;99.90;;;;;;5116347;28;19927;-45
2022/04/06 02:33:52;;;;;;;;;;;8.70;99.90;;;;;;5116225;28;19964;-44
2022/04/06 02:36:18;;;;;;;;;;;8.80;99.90;;;;;;5116120;28;19954;-46
2022/04/06 02:38:44;;;;;;;;;;;8.70;99.90;;;;;;5116142;28;19907;-44
2022/04/06 02:41:10;;;;;;;;;;;8.70;99.90;;;;;;5116638;28;19908;-45
2022/04/06 02:43:35;;;;;;;;;;;8.70;99.90;;;;;;5116302;28;19908;-45
2022/04/06 02:46:01;;;;;;;;;;;8.70;99.90;;;;;;5116291;28;19919;-44
2022/04/06 02:48:27;;;;;;;;;;;8.70;99.90;;;;;;5115832;28;19916;-44
2022/04/06 02:50:52;;;;;;;;;;;8.70;99.90;;;;;;5115741;28;19912;-43
2022/04/06 02:53:18;;;;;;;;;;;8.70;99.90;;;;;;5115766;28;19908;-44
2022/04/06 02:55:44;;;;;;;;;;;8.60;99.90;;;;;;5115981;28;19908;-42
2022/04/06 02:58:09;;;;;;;;;;;8.60;99.90;;;;;;5115877;28;19912;-42
2022/04/06 03:00:35;;;;;;;;;;;8.60;99.90;;;;;;5115866;28;19908;-42
2022/04/06 03:03:01;;;;;;;;;;;8.60;99.90;;;;;;5115518;28;19909;-42
2022/04/06 03:05:27;;;;;;;;;;;8.60;99.90;;;;;;5115599;28;19918;-42
2022/04/06 03:07:53;;;;;;;;;;;8.50;99.90;;;;;;5114420;28;19916;-43
2022/04/06 03:10:18;;;;;;;;;;;8.50;99.90;;;;;;5115271;28;19908;-42
2022/04/06 03:12:44;;;;;;;;;;;8.50;99.90;;;;;;5115291;28;19908;-43
2022/04/06 03:15:09;;;;;;;;;;;8.50;99.90;;;;;;5115239;28;19949;-46
2022/04/06 03:17:36;;;;;;;;;;;8.50;99.90;;;;;;5115562;28;19908;-43
2022/04/06 03:20:02;;;;;;;;;;;8.50;99.90;;;;;;5115504;28;19908;-47
2022/04/06 03:22:28;;;;;;;;;;;8.50;99.90;;;;;;5115418;28;19908;-42
2022/04/06 03:24:54;;;;;;;;;;;8.50;99.90;;;;;;5115041;28;20277;-44
2022/04/06 03:27:19;;;;;;;;;;;8.50;99.90;;;;;;5115367;28;19916;-44
2022/04/06 03:29:45;;;;;;;;;;;8.50;99.90;;;;;;5115129;28;19908;-44
2022/04/06 03:32:11;;;;;;;;;;;8.60;99.90;;;;;;5115022;28;20323;-42
2022/04/06 03:34:36;;;;;;;;;;;8.50;99.90;;;;;;5115167;28;19914;-43
2022/04/06 03:37:02;;;;;;;;;;;8.50;99.90;;;;;;5114794;28;20320;-44
2022/04/06 03:39:28;;;;;;;;;;;8.40;99.90;;;;;;5114906;28;20377;-43
2022/04/06 03:41:54;;;;;;;;;;;8.30;99.90;;;;;;5115059;28;19908;-43
2022/04/06 03:44:19;;;;;;;;;;;8.20;99.90;;;;;;5114994;28;19957;-44
2022/04/06 03:46:45;;;;;;;;;;;8.10;99.90;;;;;;5114968;28;19912;-43
2022/04/06 03:49:11;;;;;;;;;;;8.10;99.90;;;;;;5114437;28;19954;-44
2022/04/06 03:51:36;;;;;;;;;;;8.00;99.90;;;;;;5114838;28;20276;-45
2022/04/06 03:54:03;;;;;;;;;;;7.80;99.90;;;;;;5114706;28;19918;-44
2022/04/06 03:56:29;;;;;;;;;;;7.70;99.90;;;;;;5114692;28;20053;-43
2022/04/06 03:58:54;;;;;;;;;;;7.70;99.90;;;;;;5114693;28;19949;-43
2022/04/06 04:01:20;;;;;;;;;;;7.70;99.90;;;;;;5114628;28;20295;-41
2022/04/06 04:03:45;;;;;;;;;;;7.70;99.90;;;;;;5114487;28;20412;-44
2022/04/06 04:06:11;;;;;;;;;;;7.70;99.90;;;;;;5114521;28;19913;-44
2022/04/06 04:08:37;;;;;;;;;;;7.80;99.90;;;;;;5114529;28;20273;-43
2022/04/06 04:11:02;;;;;;;;;;;7.80;99.90;;;;;;5114416;28;19911;-44
2022/04/06 04:13:28;;;;;;;;;;;7.90;99.90;;;;;;5114116;28;19915;-43
2022/04/06 04:15:53;;;;;;;;;;;7.90;99.90;;;;;;5113199;28;19908;-43
2022/04/06 04:18:19;;;;;;;;;;;7.90;99.90;;;;;;5114066;28;19908;-42
2022/04/06 04:20:45;;;;;;;;;;;7.90;99.90;;;;;;5113892;28;19936;-43
2022/04/06 04:23:14;;;;;;;;;;;8.00;99.90;;;;;;5114064;28;19928;-44
2022/04/06 04:25:40;;;;;;;;;;;8.10;99.90;;;;;;5114207;28;19912;-42
2022/04/06 04:28:05;;;;;;;;;;;8.10;99.90;;;;;;5114241;28;19919;-43
2022/04/06 04:30:31;;;;;;;;;;;8.10;99.90;;;;;;5114404;28;19947;-42
2022/04/06 04:32:57;;;;;;;;;;;8.10;99.90;;;;;;5114509;28;19919;-44
2022/04/06 04:35:22;;;;;;;;;;;8.10;99.90;;;;;;5114260;28;19912;-42
2022/04/06 04:37:48;;;;;;;;;;;8.20;99.90;;;;;;5113868;28;20354;-42
2022/04/06 04:40:16;;;;;;;;;;;8.50;99.90;;;;;;5113925;28;19998;-43
2022/04/06 04:42:42;;;;;;;;;;;8.50;99.90;;;;;;5113901;28;19915;-45
2022/04/06 04:45:08;;;;;;;;;;;8.40;99.90;;;;;;5112593;28;20350;-42
2022/04/06 04:47:34;;;;;;;;;;;8.40;99.90;;;;;;5113923;28;19918;-43
2022/04/06 04:50:00;;;;;;;;;;;8.40;99.90;;;;;;5114081;28;19908;-44
2022/04/06 04:52:25;;;;;;;;;;;8.40;99.90;;;;;;5113785;28;19914;-45
2022/04/06 04:54:51;;;;;;;;;;;8.50;99.90;;;;;;5113606;28;19907;-43
2022/04/06 04:57:16;;;;;;;;;;;8.40;99.90;;;;;;5112503;28;19915;-43
2022/04/06 04:59:42;;;;;;;;;;;8.40;99.90;;;;;;5112220;28;19998;-43
2022/04/06 05:02:07;;;;;;;;;;;8.50;99.90;;;;;;5113140;28;20358;-43
2022/04/06 05:04:33;;;;;;;;;;;8.50;99.90;;;;;;5113424;28;19914;-42
2022/04/06 05:06:58;;;;;;;;;;;8.60;99.90;;;;;;5113110;28;19919;-43
2022/04/06 05:09:24;;;;;;;;;;;8.60;99.90;;;;;;5113484;28;19919;-42
2022/04/06 05:11:49;;;;;;;;;;;8.60;99.90;;;;;;5112755;28;19918;-44
2022/04/06 05:14:15;;;;;;;;;;;8.60;99.90;;;;;;5113392;28;19955;-49
2022/04/06 05:16:40;;;;;;;;;;;8.70;99.90;;;;;;5112923;28;20418;-44
2022/04/06 05:19:06;;;;;;;;;;;8.70;99.90;;;;;;5112940;28;19908;-44
2022/04/06 05:21:31;;;;;;;;;;;8.70;99.90;;;;;;5113462;28;20458;-46
2022/04/06 05:23:58;;;;;;;;;;;8.80;99.90;;;;;;5113327;28;19908;-45
2022/04/06 05:26:23;;;;;;;;;;;8.80;99.90;;;;;;5112732;28;19918;-42
2022/04/06 05:28:49;;;;;;;;;;;8.90;99.90;;;;;;5113194;28;19918;-43
2022/04/06 05:31:14;;;;;;;;;;;9.00;99.90;;;;;;5113701;28;19919;-44
2022/04/06 05:33:40;;;;;;;;;;;9.00;99.90;;;;;;5115931;28;19912;-42
2022/04/06 05:36:06;;;;;;;;;;;9.00;99.90;;;;;;5116260;28;20276;-43
2022/04/06 05:38:34;;;;;;;;;;;9.00;99.90;;;;;;5116521;28;19912;-45
2022/04/06 05:41:01;;;;;;;;;;;9.00;99.90;;;;;;5116584;28;19914;-45
2022/04/06 05:43:26;;;;;;;;;;;9.10;99.90;;;;;;5117043;28;19908;-46
2022/04/06 05:45:52;;;;;;;;;;;9.10;99.90;;;;;;5116481;28;20013;-44
2022/04/06 05:48:17;;;;;;;;;;;9.20;99.90;;;;;;5116133;28;20231;-43
2022/04/06 05:50:43;;;;;;;;;;;9.40;99.90;;;;;;5116339;28;19908;-46
2022/04/06 05:53:08;;;;;;;;;;;9.50;99.90;;;;;;5116822;28;19943;-44
2022/04/06 05:55:34;;;;;;;;;;;9.50;99.90;;;;;;5116206;28;19908;-43
2022/04/06 05:57:59;;;;;;;;;;;9.60;99.90;;;;;;5114950;28;19907;-42
2022/04/06 06:00:25;;;;;;;;;;;9.60;99.90;;;;;;5116104;28;20235;-46
2022/04/06 06:02:51;;;;;;;;;;;9.60;99.90;;;;;;5116079;28;20425;-46
2022/04/06 06:05:17;;;;;;;;;;;9.60;99.90;;;;;;5116535;28;19936;-45
2022/04/06 06:07:42;;;;;;;;;;;9.60;99.90;;;;;;5116264;28;20094;-45
2022/04/06 06:10:08;;;;;;;;;;;9.60;99.90;;;;;;5116116;28;19972;-42
2022/04/06 06:12:34;;;;;;;;;;;9.50;99.90;;;;;;5116015;28;19915;-44
2022/04/06 06:15:01;;;;;;;;;;;9.70;99.90;;;;;;5115546;28;19908;-43
2022/04/06 06:17:26;;;;;;;;;;;9.80;99.90;;;;;;5116077;28;19908;-44
2022/04/06 06:19:52;;;;;;;;;;;10.10;99.90;;;;;;5115916;28;19919;-45
2022/04/06 06:22:17;;;;;;;;;;;10.10;99.90;;;;;;5115661;28;19908;-45
2022/04/06 06:24:43;;;;;;;;;;;10.30;99.90;;;;;;5116120;28;19914;-43
2022/04/06 06:27:08;;;;;;;;;;;10.30;99.90;;;;;;5115697;28;20346;-43
2022/04/06 06:29:34;;;;;;;;;;;10.30;99.90;;;;;;5115754;28;19918;-44
2022/04/06 06:32:00;;;;;;;;;;;10.30;99.90;;;;;;5115947;28;19962;-42
2022/04/06 06:34:25;;;;;;;;;;;10.30;99.90;;;;;;5115739;28;19912;-43
2022/04/06 06:36:51;;;;;;;;;;;10.40;99.90;;;;;;5115636;28;19919;-43
2022/04/06 06:39:16;;;;;;;;;;;10.50;99.90;;;;;;5115416;28;19960;-44
2022/04/06 06:41:43;;;;;;;;;;;10.80;99.90;;;;;;5115214;28;19998;-43
2022/04/06 06:44:08;;;;;;;;;;;10.80;99.90;;;;;;5115483;28;19955;-43
2022/04/06 06:46:34;;;;;;;;;;;11.00;99.90;;;;;;5115032;28;19911;-44
2022/04/06 06:49:03;;;;;;;;;;;11.20;99.90;;;;;;5115248;28;19912;-44
2022/04/06 06:51:30;;;;;;;;;;;11.30;99.90;;;;;;5115303;28;20338;-43
2022/04/06 06:53:56;;;;;;;;;;;11.30;99.90;;;;;;5115286;28;19908;-43
2022/04/06 06:56:21;;;;;;;;;;;11.60;99.90;;;;;;5114365;28;19915;-45
2022/04/06 06:58:47;;;;;;;;;;;11.70;99.90;;;;;;5115312;28;19908;-45
2022/04/06 07:01:12;;;;;;;;;;;11.70;99.90;;;;;;5114924;28;19912;-43
2022/04/06 07:03:38;;;;;;;;;;;11.80;99.90;;;;;;5115302;28;19951;-43
2022/04/06 07:06:03;;;;;;;;;;;11.80;99.90;;;;;;5115197;28;20002;-44
2022/04/06 07:08:29;;;;;;;;;;;11.80;99.90;;;;;;5114959;28;19911;-44
2022/04/06 07:10:55;;;;;;;;;;;11.80;99.90;;;;;;5115343;28;20277;-46
2022/04/06 07:13:21;;;;;;;;;;;11.90;99.90;;;;;;5115298;28;19908;-45
2022/04/06 07:15:47;;;;;;;;;;;12.00;99.90;;;;;;5114740;28;19907;-42
2022/04/06 07:18:13;;;;;;;;;;;12.10;99.90;;;;;;5114363;28;20267;-43
2022/04/06 07:20:39;;;;;;;;;;;12.30;99.90;;;;;;5113493;28;19908;-43
2022/04/06 07:23:05;;;;;;;;;;;12.20;99.90;;;;;;5115003;28;19915;-48
2022/04/06 07:25:30;;;;;;;;;;;12.30;99.90;;;;;;5114579;28;19912;-46
2022/04/06 07:27:56;;;;;;;;;;;12.40;99.90;;;;;;5115036;28;19957;-44
2022/04/06 07:30:22;;;;;;;;;;;12.40;99.90;;;;;;5114539;28;19911;-45
2022/04/06 07:32:47;;;;;;;;;;;12.20;99.90;;;;;;5115154;28;19927;-43
2022/04/06 07:35:13;;;;;;;;;;;12.20;99.90;;;;;;5114746;28;19915;-45
2022/04/06 07:37:43;;;;;;;;;;;12.20;99.90;;;;;;5114166;28;19915;-44
2022/04/06 07:40:09;;;;;;;;;;;12.20;99.90;;;;;;5113330;28;19977;-43
2022/04/06 07:42:35;;;;;;;;;;;12.10;99.90;;;;;;5114496;28;20350;-52
2022/04/06 07:45:02;;;;;;;;;;;12.10;99.90;;;;;;5114765;28;19908;-45
2022/04/06 07:47:30;;;;;;;;;;;12.20;99.90;;;;;;5114626;28;19959;-47
2022/04/06 07:49:56;;;;;;;;;;;12.30;99.90;;;;;;5114676;28;19953;-47
2022/04/06 07:52:22;;;;;;;;;;;12.00;99.90;;;;;;5114501;28;19956;-42
2022/04/06 07:54:47;;;;;;;;;;;12.20;99.90;;;;;;5114044;28;19908;-45
2022/04/06 07:57:13;;;;;;;;;;;12.40;99.90;;;;;;5114766;28;19915;-44
2022/04/06 07:59:38;;;;;;;;;;;12.70;99.90;;;;;;5114471;28;19911;-44
2022/04/06 08:02:04;;;;;;;;;;;12.70;99.90;;;;;;5114395;28;19908;-45
2022/04/06 08:04:29;;;;;;;;;;;12.50;99.90;;;;;;5113990;28;20215;-45
2022/04/06 08:06:55;;;;;;;;;;;12.60;99.90;;;;;;5114297;28;19912;-45
2022/04/06 08:09:20;;;;;;;;;;;12.90;99.90;;;;;;5114102;28;19919;-45
2022/04/06 08:11:46;;;;;;;;;;;13.10;99.90;;;;;;5113896;28;19908;-42
2022/04/06 08:14:11;;;;;;;;;;;13.50;99.90;;;;;;5114125;28;19915;-42
2022/04/06 08:16:37;;;;;;;;;;;13.40;99.90;;;;;;5113900;28;19931;-43
2022/04/06 08:19:03;;;;;;;;;;;13.60;99.90;;;;;;5113817;28;19919;-42
2022/04/06 08:21:31;;;;;;;;;;;13.70;99.90;;;;;;5113676;28;19907;-43
2022/04/06 08:23:57;;;;;;;;;;;13.70;99.90;;;;;;5113481;28;19908;-43
2022/04/06 08:26:22;;;;;;;;;;;13.80;99.90;;;;;;5113730;28;20039;-43
2022/04/06 08:28:49;;;;;;;;;;;14.10;99.90;;;;;;5113920;28;19912;-42
2022/04/06 08:31:15;;;;;;;;;;;13.90;99.90;;;;;;5113322;28;20267;-45
2022/04/06 08:33:42;;;;;;;;;;;13.50;99.90;;;;;;5113943;28;20421;-43
2022/04/06 08:36:09;;;;;;;;;;;13.60;99.90;;;;;;5113742;28;20331;-43
2022/04/06 08:38:37;;;;;;;;;;;13.70;99.90;;;;;;5113781;28;19915;-44
2022/04/06 08:41:08;;;;;;;;;;;14.10;99.90;;;;;;5113996;28;19911;-43
2022/04/06 08:43:41;;;;;;;;;;;14.20;99.90;;;;;;5113568;28;19908;-44
2022/04/06 08:46:08;;;;;;;;;;;14.10;99.90;;;;;;5112355;28;20387;-43
2022/04/06 08:48:35;;;;;;;;;;;13.90;99.90;;;;;;5113028;28;19919;-41
2022/04/06 08:51:00;;;;;;;;;;;13.60;99.90;;;;;;5113586;28;19916;-44
2022/04/06 08:53:26;;;;;;;;;;;13.70;99.90;;;;;;5113629;28;19914;-43
2022/04/06 08:55:51;;;;;;;;;;;14.00;99.90;;;;;;5113881;28;20002;-44
2022/04/06 08:58:17;;;;;;;;;;;14.00;99.90;;;;;;5113644;28;19995;-44
2022/04/06 09:00:42;;;;;;;;;;;14.10;99.90;;;;;;5112098;28;19943;-42
2022/04/06 09:03:08;;;;;;;;;;;14.50;99.90;;;;;;5113445;28;19914;-46
2022/04/06 09:05:34;;;;;;;;;;;14.40;99.90;;;;;;5113526;28;19912;-42
2022/04/06 09:08:01;;;;;;;;;;;14.30;99.90;;;;;;5116309;28;20049;-45
2022/04/06 09:10:33;;;;;;;;;;;14.10;99.90;;;;;;5117130;28;19907;-43
2022/04/06 09:13:08;;;;;;;;;;;13.90;99.90;;;;;;5117635;28;19918;-43
2022/04/06 09:15:34;;;;;;;;;;;13.70;99.90;;;;;;5117592;28;19915;-42
2022/04/06 09:18:00;;;;;;;;;;;13.60;99.90;;;;;;5117204;28;19908;-44
2022/04/06 09:20:26;;;;;;;;;;;13.60;99.90;;;;;;5117139;28;19908;-44
2022/04/06 09:22:51;;;;;;;;;;;13.60;99.90;;;;;;5117449;28;20258;-43
2022/04/06 09:25:20;;;;;;;;;;;13.50;99.90;;;;;;5117199;28;19921;-45
2022/04/06 09:27:45;;;;;;;;;;;13.40;99.90;;;;;;5117363;28;19911;-42
2022/04/06 09:30:11;;;;;;;;;;;13.70;99.90;;;;;;5117261;28;19934;-43
2022/04/06 09:32:39;;;;;;;;;;;13.90;99.90;;;;;;5116853;28;20439;-43
2022/04/06 09:35:25;;;;;;;;;;;14.30;99.90;;;;;;5115804;28;19908;-45
2022/04/06 09:38:07;;;;;;;;;;;14.40;99.90;;;;;;5117055;28;20000;-44
2022/04/06 09:40:32;;;;;;;;;;;14.40;99.90;;;;;;5116658;28;19911;-44
2022/04/06 09:42:58;;;;;;;;;;;14.60;99.90;;;;;;5117184;28;19914;-44
2022/04/06 09:48:14;;;;;;;;;;;15.00;99.90;;;;;;5116376;28;19918;-42
2022/04/06 09:50:42;;;;;;;;;;;15.00;99.90;;;;;;5116714;28;19908;-44
2022/04/06 09:53:07;;;;;;;;;;;15.10;99.90;;;;;;5116631;28;19914;-46
2022/04/06 09:55:33;;;;;;;;;;;15.20;99.90;;;;;;5116909;28;20324;-44
2022/04/06 09:58:01;;;;;;;;;;;15.00;99.90;;;;;;5116156;28;19908;-45
2022/04/06 10:00:29;;;;;;;;;;;14.80;99.90;;;;;;5116647;28;19962;-43
2022/04/06 10:03:10;;;;;;;;;;;14.90;99.90;;;;;;5116582;28;19908;-43
2022/04/06 10:05:37;;;;;;;;;;;14.70;99.90;;;;;;5115531;28;20397;-43
2022/04/06 10:08:04;;;;;;;;;;;14.60;99.90;;;;;;5116185;28;20282;-45
2022/04/06 10:10:30;;;;;;;;;;;15.00;99.90;;;;;;5116781;28;19907;-45
2022/04/06 10:12:56;;;;;;;;;;;15.30;99.90;;;;;;5116770;28;19995;-45
2022/04/06 10:15:23;;;;;;;;;;;15.70;99.90;;;;;;5115008;28;19908;-43
2022/04/06 10:17:48;;;;;;;;;;;15.90;99.90;;;;;;5115695;28;19914;-42
2022/04/06 10:20:20;;;;;;;;;;;15.80;99.90;;;;;;5116453;28;19908;-44
2022/04/06 10:22:52;;;;;;;;;;;15.30;99.90;;;;;;5116193;28;19914;-44
2022/04/06 10:25:25;;;;;;;;;;;15.50;99.90;;;;;;5115930;28;20300;-45
2022/04/06 10:27:53;;;;;;;;;;;15.00;99.90;;;;;;5116761;28;19959;-43
2022/04/06 10:30:22;;;;;;;;;;;15.00;99.90;;;;;;5115548;28;19908;-43
2022/04/06 10:32:51;;;;;;;;;;;15.20;99.90;;;;;;5116017;28;19920;-44
2022/04/06 10:35:22;;;;;;;;;;;15.40;99.90;;;;;;5115751;28;19952;-42
2022/04/06 10:37:49;;;;;;;;;;;15.40;99.90;;;;;;5115606;28;20413;-48
2022/04/06 10:40:15;;;;;;;;;;;15.70;99.90;;;;;;5115989;28;20274;-44
2022/04/06 10:42:42;;;;;;;;;;;15.40;99.90;;;;;;5114956;28;19908;-44
2022/04/06 10:45:29;;;;;;;;;;;15.30;99.90;;;;;;5115954;28;19908;-43
2022/04/06 10:48:13;;;;;;;;;;;15.10;99.90;;;;;;5114416;28;20371;-46
2022/04/06 10:50:48;;;;;;;;;;;15.40;99.90;;;;;;5115513;28;19949;-43
2022/04/06 10:53:27;;;;;;;;;;;15.60;99.90;;;;;;5115706;28;20391;-45
2022/04/06 10:55:57;;;;;;;;;;;15.50;99.90;;;;;;5115495;28;20431;-43
2022/04/06 10:58:26;;;;;;;;;;;15.40;99.90;;;;;;5115291;28;19961;-45
2022/04/06 11:01:10;;;;;;;;;;;15.20;99.90;;;;;;5115137;28;19915;-43
2022/04/06 11:03:40;;;;;;;;;;;15.30;99.90;;;;;;5115051;28;19907;-48
2022/04/06 11:06:05;;;;;;;;;;;15.70;99.90;;;;;;5114622;28;19918;-46
2022/04/06 11:11:38;;;;;;;;;;;15.70;99.90;;;;;;5114191;28;20381;-48
2022/04/06 11:14:04;;;;;;;;;;;15.80;99.90;;;;;;5114929;28;20019;-46
2022/04/06 11:16:39;;;;;;;;;;;16.20;99.90;;;;;;5114739;28;19908;-49
2022/04/06 11:19:04;;;;;;;;;;;16.30;99.90;;;;;;5113329;28;19930;-44
2022/04/06 11:21:31;;;;;;;;;;;16.20;99.90;;;;;;5114568;28;20366;-45
2022/04/06 11:23:57;;;;;;;;;;;16.30;99.90;;;;;;5114223;28;19915;-45
2022/04/06 11:26:23;;;;;;;;;;;16.80;99.90;;;;;;5114677;28;19923;-44
2022/04/06 11:28:56;;;;;;;;;;;17.00;99.90;;;;;;5112754;28;19916;-43
2022/04/06 11:31:21;;;;;;;;;;;16.80;99.90;;;;;;5114323;28;19923;-42
2022/04/06 11:33:47;;;;;;;;;;;17.00;99.90;;;;;;5114702;28;19915;-45
2022/04/06 11:36:16;;;;;;;;;;;16.80;99.90;;;;;;5113231;28;19988;-46
2022/04/06 11:38:42;;;;;;;;;;;16.70;99.90;;;;;;5114497;28;19908;-43
2022/04/06 11:41:07;;;;;;;;;;;16.00;99.90;;;;;;5113124;28;20374;-48
2022/04/06 11:43:36;;;;;;;;;;;15.80;99.90;;;;;;5114369;28;19914;-42
2022/04/06 11:46:01;;;;;;;;;;;15.70;99.90;;;;;;5113091;28;19912;-43
2022/04/06 11:48:37;;;;;;;;;;;16.00;99.90;;;;;;5113013;28;19981;-43
2022/04/06 11:51:03;;;;;;;;;;;16.20;99.90;;;;;;5114755;28;19911;-44
2022/04/06 11:53:29;;;;;;;;;;;16.00;99.90;;;;;;5114625;28;19907;-43
2022/04/06 11:55:55;;;;;;;;;;;16.10;99.90;;;;;;5114311;28;19998;-43
2022/04/06 11:58:34;;;;;;;;;;;16.30;99.90;;;;;;5114640;28;20314;-44
2022/04/06 12:01:04;;;;;;;;;;;16.60;99.90;;;;;;5114318;28;19958;-44
2022/04/06 12:03:30;;;;;;;;;;;16.80;99.90;;;;;;5114082;28;20010;-45
2022/04/06 12:05:56;;;;;;;;;;;16.90;99.70;;;;;;5114094;28;20251;-46
2022/04/06 12:08:23;;;;;;;;;;;17.00;99.90;;;;;;5113930;28;19912;-44
2022/04/06 12:10:56;;;;;;;;;;;16.90;99.90;;;;;;5113944;28;19930;-44
2022/04/06 12:13:22;;;;;;;;;;;16.90;99.50;;;;;;5113509;28;20000;-44
2022/04/06 12:15:51;;;;;;;;;;;17.30;99.90;;;;;;5113745;28;19911;-43
2022/04/06 12:18:19;;;;;;;;;;;17.80;99.40;;;;;;5113809;28;19960;-44
2022/04/06 12:20:48;;;;;;;;;;;18.20;98.70;;;;;;5113769;28;19935;-46
2022/04/06 12:23:15;;;;;;;;;;;18.10;99.00;;;;;;5113406;28;20006;-43
2022/04/06 12:25:40;;;;;;;;;;;18.00;98.80;;;;;;5113810;28;20006;-43
2022/04/06 12:28:13;;;;;;;;;;;17.60;98.80;;;;;;5113393;28;19911;-47
2022/04/06 12:30:55;;;;;;;;;;;17.20;99.10;;;;;;5114196;28;20346;-45
2022/04/06 12:33:50;;;;;;;;;;;16.90;99.50;;;;;;5114171;28;20281;-48
2022/04/06 12:36:16;;;;;;;;;;;16.90;99.90;;;;;;5100395;28;19908;-43
2022/04/06 12:38:43;;;;;;;;;;;17.10;99.40;;;;;;5113720;28;20315;-45
2022/04/06 12:41:11;;;;;;;;;;;17.10;99.40;;;;;;5115660;28;19923;-46
2022/04/06 12:43:46;;;;;;;;;;;16.90;99.60;;;;;;5118156;28;19957;-44
2022/04/06 12:46:12;;;;;;;;;;;16.70;99.50;;;;;;5116803;28;19911;-43
2022/04/06 12:48:37;;;;;;;;;;;17.10;99.10;;;;;;5117919;28;20349;-44
2022/04/06 12:51:22;;;;;;;;;;;17.30;98.70;;;;;;5118204;28;19931;-47
2022/04/06 12:53:48;;;;;;;;;;;17.90;98.60;;;;;;5118366;28;19915;-43
2022/04/06 12:56:15;;;;;;;;;;;18.00;98.10;;;;;;5117492;28;19915;-43
2022/04/06 12:58:41;;;;;;;;;;;17.80;98.40;;;;;;5117409;28;19915;-46
2022/04/06 13:01:09;;;;;;;;;;;17.30;98.80;;;;;;5117125;28;19908;-45
2022/04/06 13:03:36;;;;;;;;;;;17.00;99.30;;;;;;5117672;28;19952;-44
2022/04/06 13:06:02;;;;;;;;;;;16.90;99.80;;;;;;5117301;28;20406;-43
2022/04/06 13:08:27;;;;;;;;;;;17.10;99.30;;;;;;5117489;28;19920;-45
2022/04/06 13:10:53;;;;;;;;;;;17.10;99.20;;;;;;5116183;28;19908;-44
2022/04/06 13:13:18;;;;;;;;;;;17.20;98.20;;;;;;5117556;28;19912;-41
2022/04/06 13:15:45;;;;;;;;;;;17.10;98.40;;;;;;5117330;28;19908;-46
2022/04/06 13:18:10;;;;;;;;;;;17.00;98.20;;;;;;5117387;28;19994;-46
2022/04/06 13:20:36;;;;;;;;;;;17.10;98.70;;;;;;5116982;28;19908;-45
2022/04/06 13:23:02;;;;;;;;;;;17.00;98.30;;;;;;5117380;28;20061;-44
2022/04/06 13:25:28;;;;;;;;;;;17.10;98.70;;;;;;5116999;28;19914;-47
2022/04/06 13:27:54;;;;;;;;;;;17.40;98.80;;;;;;5116901;28;20002;-43
2022/04/06 13:30:19;;;;;;;;;;;17.50;98.90;;;;;;5117071;28;20007;-46
2022/04/06 13:32:46;;;;;;;;;;;17.60;98.30;;;;;;5117099;28;20361;-46
2022/04/06 13:35:12;;;;;;;;;;;18.10;97.70;;;;;;5116751;28;20545;-45
2022/04/06 13:37:38;;;;;;;;;;;18.50;97.70;;;;;;5116862;28;19916;-47
2022/04/06 13:40:04;;;;;;;;;;;18.50;96.40;;;;;;5116734;28;19963;-43
2022/04/06 13:42:29;;;;;;;;;;;18.40;96.20;;;;;;5116347;28;19908;-44
2022/04/06 13:44:55;;;;;;;;;;;18.30;96.60;;;;;;5115584;28;19956;-49
2022/04/06 13:47:21;;;;;;;;;;;18.10;97.80;;;;;;5116647;28;19934;-44
2022/04/06 13:49:47;;;;;;;;;;;18.10;97.00;;;;;;5116657;28;19919;-45
2022/04/06 13:52:12;;;;;;;;;;;18.00;96.70;;;;;;5115383;28;19916;-46
2022/04/06 13:54:38;;;;;;;;;;;18.20;96.80;;;;;;5116247;28;19908;-48
2022/04/06 13:57:04;;;;;;;;;;;18.30;96.90;;;;;;5116354;28;19907;-45
2022/04/06 13:59:29;;;;;;;;;;;18.10;97.00;;;;;;5116439;28;19994;-43
2022/04/06 14:01:55;;;;;;;;;;;17.70;97.20;;;;;;5116149;28;20259;-44
2022/04/06 14:04:21;;;;;;;;;;;17.50;97.50;;;;;;5116289;28;20207;-43
2022/04/06 14:06:47;;;;;;;;;;;17.20;97.90;;;;;;5116225;28;19951;-43
2022/04/06 14:09:12;;;;;;;;;;;17.10;98.00;;;;;;5116086;28;20358;-42
2022/04/06 14:11:39;;;;;;;;;;;16.90;98.20;;;;;;5115607;28;19973;-47
2022/04/06 14:14:05;;;;;;;;;;;17.00;98.30;;;;;;5116036;28;19908;-44
2022/04/06 14:16:30;;;;;;;;;;;17.00;98.30;;;;;;5115863;28;19907;-44
2022/04/06 14:18:58;;;;;;;;;;;16.80;98.80;;;;;;5116152;28;19908;-45
2022/04/06 14:21:24;;;;;;;;;;;16.90;98.40;;;;;;5115848;28;19908;-46
2022/04/06 14:23:50;;;;;;;;;;;17.10;98.20;;;;;;5116073;28;20251;-46
2022/04/06 14:26:16;;;;;;;;;;;17.40;98.60;;;;;;5115623;28;19912;-46
2022/04/06 14:28:42;;;;;;;;;;;17.70;97.80;;;;;;5115533;28;19919;-47